Time;durP1;ratioP1;P1;durP2;ratioP2;P2;SDS_P1;SDS_P2;PMS_P1;PMS_P2;Temp;Humidity;BMP_temperature;BMP_pressure;BME280_temperature;BME280_humidity;BME280_pressure;Samples;Min_cycle;Max_cycle;Signal;HPM_P1;HPM_P2
2023/01/30 00:02:16;;;;;;;21.25;9.32;;;;;;;;;;6283851;28;20048;-64
2023/01/30 00:05:17;;;;;;;23.55;9.90;;;;;;;;;;6294583;28;20467;-61
2023/01/30 00:08:18;;;;;;;24.25;9.60;;;;;;;;;;6277087;28;20055;-68
2023/01/30 00:11:20;;;;;;;24.40;10.25;;;;;;;;;;6291102;28;20047;-62
2023/01/30 00:14:20;;;;;;;25.92;10.10;;;;;;;;;;6290084;28;20067;-68
2023/01/30 00:17:21;;;;;;;21.88;9.27;;;;;;;;;;6281655;28;20545;-68
2023/01/30 00:20:21;;;;;;;21.23;9.45;;;;;;;;;;6292291;28;20135;-65
2023/01/30 00:23:22;;;;;;;22.67;10.07;;;;;;;;;;6288786;28;20135;-68
2023/01/30 00:26:22;;;;;;;22.42;9.85;;;;;;;;;;6292415;28;20058;-61
2023/01/30 00:29:23;;;;;;;22.42;9.80;;;;;;;;;;6291084;28;20105;-61
2023/01/30 00:32:25;;;;;;;21.02;9.20;;;;;;;;;;6290964;28;20522;-69
2023/01/30 00:35:28;;;;;;;23.10;10.55;;;;;;;;;;6291518;28;20076;-61
2023/01/30 00:38:29;;;;;;;18.83;8.43;;;;;;;;;;6291646;28;20170;-60
2023/01/30 00:47:04;;;;;;;23.92;9.25;;;;;;;;;;6282490;28;20056;-67
2023/01/30 00:48:09;;;;;;;24.85;10.07;;;;;;;;;;6278397;28;20070;-62
2023/01/30 00:51:10;;;;;;;21.10;9.63;;;;;;;;;;6289268;28;20041;-61
2023/01/30 00:54:10;;;;;;;28.20;11.13;;;;;;;;;;6293111;28;20076;-66
2023/01/30 00:57:11;;;;;;;20.77;10.00;;;;;;;;;;6274443;28;20048;-68
2023/01/30 01:00:12;;;;;;;21.70;8.57;;;;;;;;;;6266132;28;22431;-61
2023/01/30 01:03:13;;;;;;;23.45;9.57;;;;;;;;;;6280689;28;20045;-63
2023/01/30 01:06:14;;;;;;;21.60;9.73;;;;;;;;;;6274728;28;20047;-61
2023/01/30 01:09:14;;;;;;;21.13;9.07;;;;;;;;;;6268544;28;20049;-61
2023/01/30 01:12:15;;;;;;;21.80;8.77;;;;;;;;;;6268383;28;20488;-62
2023/01/30 01:15:15;;;;;;;18.63;8.40;;;;;;;;;;6266261;28;20439;-61
2023/01/30 01:18:16;;;;;;;22.40;8.48;;;;;;;;;;6266105;28;20041;-61
2023/01/30 01:21:17;;;;;;;17.55;8.43;;;;;;;;;;6266995;28;20888;-61
2023/01/30 01:24:18;;;;;;;18.05;8.57;;;;;;;;;;6268151;28;20279;-65
2023/01/30 01:27:18;;;;;;;20.60;8.55;;;;;;;;;;6268971;28;20456;-61
2023/01/30 01:30:19;;;;;;;22.48;9.75;;;;;;;;;;6268604;28;20053;-61
2023/01/30 01:33:19;;;;;;;17.52;6.88;;;;;;;;;;6266689;28;20080;-61
2023/01/30 01:36:21;;;;;;;18.27;7.53;;;;;;;;;;6267174;28;20091;-61
2023/01/30 01:39:22;;;;;;;18.42;7.93;;;;;;;;;;6268397;28;20044;-61
2023/01/30 01:42:29;;;;;;;18.83;8.47;;;;;;;;;;6266830;28;20040;-61
2023/01/30 01:45:29;;;;;;;20.80;8.88;;;;;;;;;;6265350;28;20321;-61
2023/01/30 01:48:47;;;;;;;19.52;8.27;;;;;;;;;;6266099;28;20503;-61
2023/01/30 01:52:15;;;;;;;20.65;8.20;;;;;;;;;;6263495;28;20049;-61
2023/01/30 01:55:17;;;;;;;19.15;7.90;;;;;;;;;;6264496;28;20552;-61
2023/01/30 01:58:33;;;;;;;19.35;8.93;;;;;;;;;;6275524;28;20095;-61
2023/01/30 02:01:34;;;;;;;20.73;8.82;;;;;;;;;;6268286;28;20049;-61
2023/01/30 02:08:13;;;;;;;21.10;9.23;;;;;;;;;;6195426;28;20069;-61
2023/01/30 02:11:28;;;;;;;18.70;7.72;;;;;;;;;;6270541;28;20056;-65
2023/01/30 02:14:32;;;;;;;18.35;7.50;;;;;;;;;;6293049;28;20056;-61
2023/01/30 02:17:32;;;;;;;21.48;8.40;;;;;;;;;;6270060;28;20101;-61
2023/01/30 02:20:35;;;;;;;21.23;7.90;;;;;;;;;;6269426;28;20434;-64
2023/01/30 02:24:15;;;;;;;19.45;7.60;;;;;;;;;;6264635;28;20059;-61
2023/01/30 02:27:26;;;;;;;19.92;7.63;;;;;;;;;;6284238;28;20057;-62
2023/01/30 02:31:02;;;;;;;17.92;7.63;;;;;;;;;;6274930;28;20060;-62
2023/01/30 02:34:10;;;;;;;16.73;7.32;;;;;;;;;;6195239;28;20046;-61
2023/01/30 02:37:39;;;;;;;15.75;7.22;;;;;;;;;;6266332;28;20053;-62
2023/01/30 02:40:57;;;;;;;17.30;8.20;;;;;;;;;;6278921;28;20060;-62
2023/01/30 02:44:17;;;;;;;17.27;7.93;;;;;;;;;;6282890;28;20381;-62
2023/01/30 02:47:24;;;;;;;20.25;9.75;;;;;;;;;;6267526;28;20047;-62
2023/01/30 02:50:32;;;;;;;18.30;8.10;;;;;;;;;;6266479;28;20071;-63
2023/01/30 02:53:34;;;;;;;20.13;7.43;;;;;;;;;;6265775;28;20053;-62
2023/01/30 02:56:51;;;;;;;;;;;;;;;;;;6267150;28;20053;-63
2023/01/30 02:59:57;;;;;;;15.35;6.93;;;;;;;;;;6263699;28;20364;-64
2023/01/30 03:03:27;;;;;;;17.83;7.95;;;;;;;;;;6267202;28;20515;-61
2023/01/30 03:06:28;;;;;;;17.35;7.28;;;;;;;;;;6255232;28;20037;-69
2023/01/30 03:09:53;;;;;;;17.75;7.20;;;;;;;;;;6271525;28;20048;-62
2023/01/30 03:13:18;;;;;;;19.40;7.22;;;;;;;;;;6269274;28;20053;-68
2023/01/30 03:16:32;;;;;;;17.23;8.48;;;;;;;;;;6271204;28;20087;-69
2023/01/30 03:19:33;;;;;;;17.65;7.57;;;;;;;;;;6286411;28;20044;-62
2023/01/30 03:22:33;;;;;;;17.05;7.43;;;;;;;;;;6287284;28;20450;-62
2023/01/30 03:25:38;;;;;;;15.25;6.95;;;;;;;;;;6276779;28;20059;-62
2023/01/30 03:28:39;;;;;;;15.25;7.22;;;;;;;;;;6287239;28;20049;-62
2023/01/30 03:31:39;;;;;;;17.63;7.80;;;;;;;;;;6273434;28;20057;-61
2023/01/30 03:34:40;;;;;;;18.40;7.50;;;;;;;;;;6264476;28;20086;-61
2023/01/30 03:37:41;;;;;;;14.82;7.28;;;;;;;;;;6279297;28;20040;-62
2023/01/30 03:40:41;;;;;;;17.67;6.82;;;;;;;;;;6274966;28;20045;-69
2023/01/30 03:43:42;;;;;;;15.20;6.53;;;;;;;;;;6294516;28;20487;-64
2023/01/30 03:46:42;;;;;;;17.23;8.00;;;;;;;;;;6286035;28;20407;-62
2023/01/30 03:49:43;;;;;;;16.95;7.95;;;;;;;;;;6273057;28;20132;-61
2023/01/30 03:52:44;;;;;;;16.50;7.93;;;;;;;;;;6277525;28;20052;-62
2023/01/30 03:55:44;;;;;;;16.48;6.80;;;;;;;;;;6290199;28;20051;-61
2023/01/30 03:58:45;;;;;;;15.75;6.70;;;;;;;;;;6284718;28;20705;-64
2023/01/30 04:01:46;;;;;;;16.75;7.35;;;;;;;;;;6296440;28;20056;-62
2023/01/30 04:04:46;;;;;;;16.33;7.15;;;;;;;;;;6269089;28;20068;-61
2023/01/30 04:07:47;;;;;;;16.80;7.00;;;;;;;;;;6279603;28;20786;-62
2023/01/30 04:10:47;;;;;;;13.98;6.40;;;;;;;;;;6275114;28;20491;-62
2023/01/30 04:13:48;;;;;;;16.88;7.28;;;;;;;;;;6270640;28;20923;-62
2023/01/30 04:16:48;;;;;;;16.20;7.40;;;;;;;;;;6276622;28;20052;-65
2023/01/30 04:19:49;;;;;;;16.35;7.03;;;;;;;;;;6291569;28;20478;-61
2023/01/30 04:22:49;;;;;;;15.20;6.90;;;;;;;;;;6275080;28;21107;-62
2023/01/30 04:25:50;;;;;;;15.40;7.05;;;;;;;;;;6268629;28;20135;-64
2023/01/30 04:28:51;;;;;;;19.15;7.57;;;;;;;;;;6272015;28;20297;-62
2023/01/30 04:31:51;;;;;;;14.55;6.85;;;;;;;;;;6270074;28;20513;-62
2023/01/30 04:34:52;;;;;;;16.80;6.95;;;;;;;;;;6268003;28;20041;-62
2023/01/30 04:37:52;;;;;;;17.88;7.55;;;;;;;;;;6272938;28;20139;-61
2023/01/30 04:40:55;;;;;;;16.02;6.50;;;;;;;;;;6294252;28;20044;-62
2023/01/30 04:43:55;;;;;;;16.55;7.25;;;;;;;;;;6265856;28;20049;-62
2023/01/30 04:46:56;;;;;;;21.65;8.00;;;;;;;;;;6268255;28;20051;-61
2023/01/30 04:49:56;;;;;;;15.73;6.80;;;;;;;;;;6269739;28;20064;-62
2023/01/30 04:52:57;;;;;;;20.90;9.27;;;;;;;;;;6283112;28;20052;-61
2023/01/30 04:55:58;;;;;;;18.70;7.80;;;;;;;;;;6280633;28;20048;-62
2023/01/30 04:58:58;;;;;;;21.77;8.55;;;;;;;;;;6274867;28;20097;-62
2023/01/30 05:01:59;;;;;;;20.73;8.48;;;;;;;;;;6275088;28;20475;-62
2023/01/30 05:04:59;;;;;;;20.77;7.70;;;;;;;;;;6290361;28;20063;-62
2023/01/30 05:08:00;;;;;;;19.05;7.95;;;;;;;;;;6271784;28;20419;-68
2023/01/30 05:11:00;;;;;;;20.02;8.57;;;;;;;;;;6269566;28;20048;-69
2023/01/30 05:14:01;;;;;;;20.10;9.98;;;;;;;;;;6266962;28;20068;-61
2023/01/30 05:17:02;;;;;;;21.30;8.60;;;;;;;;;;6266233;28;20067;-61
2023/01/30 05:20:03;;;;;;;19.42;9.27;;;;;;;;;;6267801;28;20144;-61
2023/01/30 05:23:04;;;;;;;21.90;9.37;;;;;;;;;;6267557;28;20049;-61
2023/01/30 05:26:05;;;;;;;19.30;8.88;;;;;;;;;;6267227;28;20483;-63
2023/01/30 05:29:05;;;;;;;23.30;9.40;;;;;;;;;;6270496;28;20596;-62
2023/01/30 05:32:06;;;;;;;21.77;9.15;;;;;;;;;;6288707;28;20057;-62
2023/01/30 05:35:07;;;;;;;19.95;8.90;;;;;;;;;;6278560;28;20045;-62
2023/01/30 05:38:07;;;;;;;17.50;8.77;;;;;;;;;;6268811;28;20067;-62
2023/01/30 05:41:09;;;;;;;19.77;8.48;;;;;;;;;;6283155;28;20045;-62
2023/01/30 05:44:10;;;;;;;19.77;9.48;;;;;;;;;;6287938;28;20059;-62
2023/01/30 05:47:10;;;;;;;19.88;8.13;;;;;;;;;;6269405;28;20503;-63
2023/01/30 05:50:11;;;;;;;26.27;9.25;;;;;;;;;;6287691;28;20407;-62
2023/01/30 05:53:12;;;;;;;24.42;10.10;;;;;;;;;;6276767;28;20392;-62
2023/01/30 05:56:13;;;;;;;22.20;9.50;;;;;;;;;;6269503;28;20125;-62
2023/01/30 05:59:14;;;;;;;18.63;8.15;;;;;;;;;;6266421;28;20447;-63
2023/01/30 06:02:15;;;;;;;21.23;8.43;;;;;;;;;;6281105;28;20422;-62
2023/01/30 06:05:15;;;;;;;17.08;8.00;;;;;;;;;;6280595;28;20061;-62
2023/01/30 06:08:16;;;;;;;23.10;9.55;;;;;;;;;;6267545;28;20072;-62
2023/01/30 06:11:16;;;;;;;23.67;9.50;;;;;;;;;;6267105;28;20037;-62
2023/01/30 06:14:17;;;;;;;21.83;8.90;;;;;;;;;;6263095;28;20056;-62
2023/01/30 06:17:17;;;;;;;21.75;9.07;;;;;;;;;;6267356;28;20780;-59
2023/01/30 06:20:18;;;;;;;19.42;9.05;;;;;;;;;;6270287;28;20040;-59
2023/01/30 06:23:20;;;;;;;23.65;10.48;;;;;;;;;;6275160;28;20040;-62
2023/01/30 06:26:21;;;;;;;22.67;10.60;;;;;;;;;;6290914;28;20056;-66
2023/01/30 06:29:21;;;;;;;20.00;8.77;;;;;;;;;;6271807;28;21467;-60
2023/01/30 06:32:22;;;;;;;21.23;9.63;;;;;;;;;;6270038;28;20141;-61
2023/01/30 06:35:23;;;;;;;20.15;8.45;;;;;;;;;;6264353;28;21023;-61
2023/01/30 06:38:23;;;;;;;19.75;8.90;;;;;;;;;;6265397;28;20151;-62
2023/01/30 06:41:24;;;;;;;21.08;9.13;;;;;;;;;;6265950;28;20044;-61
2023/01/30 06:44:24;;;;;;;22.40;9.98;;;;;;;;;;6266584;28;20060;-61
2023/01/30 06:47:25;;;;;;;22.50;9.55;;;;;;;;;;6266860;28;20088;-61
2023/01/30 06:50:27;;;;;;;33.25;13.38;;;;;;;;;;6273352;28;20488;-61
2023/01/30 06:53:29;;;;;;;22.10;9.27;;;;;;;;;;6275185;28;20045;-63
2023/01/30 06:56:30;;;;;;;24.00;9.70;;;;;;;;;;6271826;28;20491;-61
2023/01/30 06:59:30;;;;;;;16.27;8.52;;;;;;;;;;6268629;28;20051;-62
2023/01/30 07:02:34;;;;;;;23.55;9.88;;;;;;;;;;6264359;28;20072;-62
2023/01/30 07:05:37;;;;;;;19.25;8.80;;;;;;;;;;6264561;28;20041;-61
2023/01/30 07:08:39;;;;;;;20.65;9.40;;;;;;;;;;6265116;28;20063;-61
2023/01/30 07:11:40;;;;;;;20.48;9.80;;;;;;;;;;6258208;28;20052;-61
2023/01/30 07:14:40;;;;;;;21.30;10.13;;;;;;;;;;6250573;28;20388;-61
2023/01/30 07:17:41;;;;;;;22.60;8.90;;;;;;;;;;6250653;28;20044;-61
2023/01/30 07:20:46;;;;;;;26.77;9.38;;;;;;;;;;6251085;28;20037;-60
2023/01/30 07:23:46;;;;;;;22.20;9.65;;;;;;;;;;6251138;28;20372;-61
2023/01/30 07:26:47;;;;;;;20.35;9.38;;;;;;;;;;6251949;28;20072;-61
2023/01/30 07:29:48;;;;;;;23.42;9.45;;;;;;;;;;6248048;28;20119;-60
2023/01/30 07:32:54;;;;;;;20.40;8.70;;;;;;;;;;6250484;28;20130;-61
2023/01/30 07:35:55;;;;;;;16.45;7.90;;;;;;;;;;6250788;28;20541;-61
2023/01/30 07:38:55;;;;;;;20.65;10.13;;;;;;;;;;6250952;28;20045;-61
2023/01/30 07:41:58;;;;;;;22.60;9.75;;;;;;;;;;6250720;28;20050;-60
2023/01/30 07:44:59;;;;;;;20.58;9.73;;;;;;;;;;6247243;28;20045;-61
2023/01/30 07:47:59;;;;;;;19.35;8.73;;;;;;;;;;6249742;28;20040;-61
2023/01/30 07:51:00;;;;;;;19.98;9.10;;;;;;;;;;6252695;28;20463;-61
2023/01/30 07:54:02;;;;;;;21.33;9.13;;;;;;;;;;6253394;28;20053;-60
2023/01/30 07:57:03;;;;;;;21.38;8.68;;;;;;;;;;6251713;28;20047;-61
2023/01/30 08:00:04;;;;;;;21.55;8.95;;;;;;;;;;6252469;28;20057;-60
2023/01/30 08:03:05;;;;;;;24.47;8.93;;;;;;;;;;6248130;28;20207;-60
2023/01/30 08:06:06;;;;;;;21.13;9.13;;;;;;;;;;6251486;28;20054;-60
2023/01/30 08:09:07;;;;;;;20.90;9.10;;;;;;;;;;6255655;28;20052;-61
2023/01/30 08:12:07;;;;;;;20.77;8.68;;;;;;;;;;6253277;28;20563;-62
2023/01/30 08:15:09;;;;;;;21.90;8.65;;;;;;;;;;6251717;28;20049;-61
2023/01/30 08:18:09;;;;;;;22.92;9.10;;;;;;;;;;6252286;28;20076;-61
2023/01/30 08:21:10;;;;;;;20.10;8.65;;;;;;;;;;6255516;28;20485;-61
2023/01/30 08:24:10;;;;;;;21.65;9.40;;;;;;;;;;6252448;28;20048;-61
2023/01/30 08:27:11;;;;;;;21.45;8.65;;;;;;;;;;6251552;28;20048;-61
2023/01/30 08:30:12;;;;;;;19.95;8.75;;;;;;;;;;6256573;28;20051;-62
2023/01/30 08:33:13;;;;;;;21.40;9.30;;;;;;;;;;6253813;28;20067;-61
2023/01/30 08:36:14;;;;;;;34.08;15.73;;;;;;;;;;6255805;28;20049;-61
2023/01/30 08:39:15;;;;;;;21.77;10.35;;;;;;;;;;6252373;28;20888;-61
2023/01/30 08:42:15;;;;;;;26.17;11.57;;;;;;;;;;6254018;28;20045;-61
2023/01/30 08:45:16;;;;;;;22.88;10.52;;;;;;;;;;6253267;28;20071;-61
2023/01/30 08:48:16;;;;;;;27.50;11.60;;;;;;;;;;6252540;28;20105;-60
2023/01/30 08:51:17;;;;;;;30.45;10.77;;;;;;;;;;6252445;28;20072;-60
2023/01/30 08:54:17;;;;;;;20.02;9.00;;;;;;;;;;6254752;28;20230;-61
2023/01/30 08:57:18;;;;;;;23.98;9.05;;;;;;;;;;6249016;28;20045;-61
2023/01/30 09:00:20;;;;;;;22.10;9.30;;;;;;;;;;6252231;28;20053;-61
2023/01/30 09:03:20;;;;;;;20.52;8.57;;;;;;;;;;6252961;28;20049;-61
2023/01/30 09:06:21;;;;;;;22.70;9.68;;;;;;;;;;6253898;28;20056;-60
2023/01/30 09:09:22;;;;;;;22.27;8.48;;;;;;;;;;6250055;28;20131;-61
2023/01/30 09:12:22;;;;;;;23.90;10.02;;;;;;;;;;6256565;28;20164;-61
2023/01/30 09:15:23;;;;;;;20.33;9.20;;;;;;;;;;6258192;28;20047;-60
2023/01/30 09:18:24;;;;;;;21.83;9.20;;;;;;;;;;6257483;28;20057;-60
2023/01/30 09:21:25;;;;;;;17.23;8.85;;;;;;;;;;6261713;28;20053;-60
2023/01/30 09:24:26;;;;;;;23.98;10.38;;;;;;;;;;6251792;28;20041;-61
2023/01/30 09:27:27;;;;;;;20.92;10.05;;;;;;;;;;6253707;28;20048;-61
2023/01/30 09:30:27;;;;;;;21.33;8.98;;;;;;;;;;6251738;28;20049;-60
2023/01/30 09:33:28;;;;;;;22.50;10.27;;;;;;;;;;6250605;28;20551;-61
2023/01/30 09:36:29;;;;;;;21.00;10.50;;;;;;;;;;6252968;28;20416;-61
2023/01/30 09:39:30;;;;;;;22.15;11.48;;;;;;;;;;6252608;28;20149;-61
2023/01/30 09:42:53;;;;;;;18.15;8.43;;;;;;;;;;6247583;28;20049;-60
2023/01/30 09:46:06;;;;;;;19.80;9.18;;;;;;;;;;6249473;28;20052;-61
2023/01/30 09:49:37;;;;;;;20.60;9.30;;;;;;;;;;6250577;28;20052;-61
2023/01/30 09:52:45;;;;;;;23.55;10.00;;;;;;;;;;6251301;28;20085;-60
2023/01/30 09:55:46;;;;;;;21.55;9.15;;;;;;;;;;6248775;28;20060;-61
2023/01/30 09:58:47;;;;;;;19.10;8.33;;;;;;;;;;6247567;28;20423;-60
2023/01/30 10:02:00;;;;;;;28.98;13.27;;;;;;;;;;6249731;28;20041;-60
2023/01/30 10:05:02;;;;;;;26.95;12.30;;;;;;;;;;6238286;28;20083;-60
2023/01/30 10:08:39;;;;;;;26.48;11.52;;;;;;;;;;6248667;28;20480;-61
2023/01/30 10:12:21;;;;;;;28.27;12.57;;;;;;;;;;6248242;28;20063;-61
2023/01/30 10:15:27;;;;;;;23.70;9.60;;;;;;;;;;6248035;28;20056;-61
2023/01/30 10:18:50;;;;;;;22.63;10.23;;;;;;;;;;6249501;28;20041;-61
2023/01/30 10:22:05;;;;;;;17.95;8.35;;;;;;;;;;6250245;28;20049;-61
2023/01/30 10:25:38;;;;;;;22.25;9.27;;;;;;;;;;6247558;28;20049;-66
2023/01/30 10:28:59;;;;;;;26.65;9.95;;;;;;;;;;6249485;28;20048;-61
2023/01/30 10:32:00;;;;;;;21.20;8.93;;;;;;;;;;6249731;28;20048;-62
2023/01/30 10:35:06;;;;;;;23.33;9.63;;;;;;;;;;6247037;28;20048;-59
2023/01/30 10:38:18;;;;;;;24.30;10.43;;;;;;;;;;6245090;28;20515;-61
2023/01/30 10:41:28;;;;;;;24.65;10.70;;;;;;;;;;6249508;28;20491;-60
2023/01/30 10:44:28;;;;;;;23.40;10.57;;;;;;;;;;6250767;28;20415;-59
2023/01/30 10:48:03;;;;;;;30.08;14.20;;;;;;;;;;6245791;28;20045;-60
2023/01/30 10:51:25;;;;;;;26.80;10.57;;;;;;;;;;6247543;28;20055;-62
2023/01/30 10:54:33;;;;;;;28.60;13.40;;;;;;;;;;6249076;28;20045;-59
2023/01/30 10:57:52;;;;;;;24.27;11.13;;;;;;;;;;6247394;28;20147;-59
2023/01/30 11:00:58;;;;;;;23.00;9.18;;;;;;;;;;6245812;28;20046;-61
2023/01/30 11:04:02;;;;;;;21.65;9.80;;;;;;;;;;6244436;28;20136;-61
2023/01/30 11:07:03;;;;;;;27.00;10.23;;;;;;;;;;6254978;28;20123;-61
2023/01/30 11:10:15;;;;;;;26.95;10.40;;;;;;;;;;6252530;28;21511;-59
2023/01/30 11:13:38;;;;;;;22.52;9.77;;;;;;;;;;6249854;28;20048;-61
2023/01/30 11:16:49;;;;;;;25.63;10.73;;;;;;;;;;6244155;28;20049;-61
2023/01/30 11:20:01;;;;;;;28.45;10.98;;;;;;;;;;6252880;28;20553;-59
2023/01/30 11:23:08;;;;;;;26.13;11.10;;;;;;;;;;6252097;28;20053;-60
2023/01/30 11:26:35;;;;;;;22.83;10.43;;;;;;;;;;6250851;28;20053;-61
2023/01/30 11:29:39;;;;;;;24.90;10.07;;;;;;;;;;6249468;28;20049;-59
2023/01/30 11:32:42;;;;;;;26.42;10.77;;;;;;;;;;6253064;28;20041;-59
2023/01/30 11:35:59;;;;;;;28.63;10.73;;;;;;;;;;6252951;28;20049;-59
2023/01/30 11:39:19;;;;;;;32.45;13.77;;;;;;;;;;6253585;28;20056;-59
2023/01/30 11:42:27;;;;;;;27.88;10.93;;;;;;;;;;6252981;28;20171;-59
2023/01/30 11:45:32;;;;;;;26.23;11.18;;;;;;;;;;6253098;28;20128;-58
2023/01/30 11:48:41;;;;;;;24.10;10.52;;;;;;;;;;6255050;28;20051;-59
2023/01/30 11:51:44;;;;;;;26.13;10.90;;;;;;;;;;6251973;28;20523;-61
2023/01/30 11:54:46;;;;;;;26.45;11.35;;;;;;;;;;6253115;28;20065;-61
2023/01/30 11:57:55;;;;;;;25.23;11.30;;;;;;;;;;6254913;28;20054;-60
2023/01/30 12:00:57;;;;;;;27.92;10.73;;;;;;;;;;6252545;28;20055;-60
2023/01/30 12:03:59;;;;;;;31.75;11.40;;;;;;;;;;6254599;28;20052;-60
2023/01/30 12:07:07;;;;;;;25.27;10.93;;;;;;;;;;6255035;28;20156;-61
2023/01/30 12:10:18;;;;;;;30.00;12.30;;;;;;;;;;6252180;28;20397;-60
2023/01/30 12:13:40;;;;;;;25.40;11.88;;;;;;;;;;6262191;28;20098;-60
2023/01/30 12:16:53;;;;;;;27.80;10.80;;;;;;;;;;6251714;28;20080;-60
2023/01/30 12:20:04;;;;;;;24.90;10.32;;;;;;;;;;6254051;28;20138;-60
2023/01/30 12:23:14;;;;;;;26.05;9.70;;;;;;;;;;6251872;28;20095;-61
2023/01/30 12:26:36;;;;;;;23.77;10.13;;;;;;;;;;6253090;28;20055;-61
2023/01/30 12:29:55;;;;;;;21.65;9.60;;;;;;;;;;6253355;28;20047;-62
2023/01/30 12:33:01;;;;;;;22.85;9.40;;;;;;;;;;6257469;28;20053;-61
2023/01/30 12:36:14;;;;;;;27.15;11.27;;;;;;;;;;6252009;28;20511;-61
2023/01/30 12:39:32;;;;;;;23.45;9.35;;;;;;;;;;6253158;28;20049;-61
2023/01/30 12:42:39;;;;;;;27.55;10.43;;;;;;;;;;6252950;28;20110;-60
2023/01/30 12:45:53;;;;;;;27.50;10.07;;;;;;;;;;6248415;28;20953;-61
2023/01/30 12:49:27;;;;;;;26.92;10.95;;;;;;;;;;6249596;28;20062;-63
2023/01/30 12:52:46;;;;;;;28.20;11.63;;;;;;;;;;6246947;28;20045;-61
2023/01/30 12:56:24;;;;;;;26.13;11.25;;;;;;;;;;6251219;28;20619;-61
2023/01/30 12:59:47;;;;;;;35.10;15.02;;;;;;;;;;6253183;28;20052;-61
2023/01/30 13:03:13;;;;;;;34.28;13.77;;;;;;;;;;6253649;28;20044;-61
2023/01/30 13:06:31;;;;;;;33.92;13.65;;;;;;;;;;6251562;28;20040;-61
2023/01/30 13:09:53;;;;;;;27.23;11.00;;;;;;;;;;6248238;28;20045;-61
2023/01/30 13:13:12;;;;;;;32.53;13.07;;;;;;;;;;6258694;28;20049;-62
2023/01/30 13:16:50;;;;;;;35.30;14.43;;;;;;;;;;6255578;28;20079;-61
2023/01/30 13:20:03;;;;;;;31.35;11.88;;;;;;;;;;6251180;28;20047;-61
2023/01/30 13:23:24;;;;;;;34.67;12.43;;;;;;;;;;6250535;28;20432;-61
2023/01/30 13:26:34;;;;;;;30.55;11.70;;;;;;;;;;6235259;28;20045;-62
2023/01/30 13:29:39;;;;;;;32.40;12.95;;;;;;;;;;6249851;28;20045;-61
2023/01/30 13:32:46;;;;;;;34.97;12.63;;;;;;;;;;6253438;28;20067;-61
2023/01/30 13:36:02;;;;;;;31.30;12.80;;;;;;;;;;6250780;28;20140;-61
2023/01/30 13:39:11;;;;;;;34.30;12.32;;;;;;;;;;6252390;28;20051;-62
2023/01/30 13:42:27;;;;;;;30.20;12.38;;;;;;;;;;6250770;28;20042;-61
2023/01/30 13:45:32;;;;;;;32.50;11.63;;;;;;;;;;6250616;28;20056;-61
2023/01/30 13:49:03;;;;;;;32.33;12.38;;;;;;;;;;6249776;28;20053;-61
2023/01/30 13:52:17;;;;;;;41.05;17.15;;;;;;;;;;6251997;28;20040;-61
2023/01/30 13:55:44;;;;;;;38.83;16.70;;;;;;;;;;6254217;28;20397;-61
2023/01/30 13:59:01;;;;;;;34.30;15.27;;;;;;;;;;6248424;28;20049;-61
2023/01/30 14:02:02;;;;;;;27.98;12.82;;;;;;;;;;6250679;28;20731;-60
2023/01/30 14:05:04;;;;;;;27.77;11.65;;;;;;;;;;6248667;28;20051;-61
2023/01/30 14:08:11;;;;;;;27.50;11.80;;;;;;;;;;6250482;28;20059;-62
2023/01/30 14:11:32;;;;;;;31.13;11.50;;;;;;;;;;6249533;28;20053;-61
2023/01/30 14:14:39;;;;;;;26.90;10.77;;;;;;;;;;6250641;28;20044;-61
2023/01/30 14:17:56;;;;;;;28.50;11.18;;;;;;;;;;6250723;28;20058;-61
2023/01/30 14:21:19;;;;;;;33.95;12.25;;;;;;;;;;6249321;28;20183;-61
2023/01/30 14:24:21;;;;;;;;;;;;;;;;;;6251010;28;20040;-61
2023/01/30 14:27:30;;;;;;;53.15;19.42;;;;;;;;;;6251990;28;19927;-60
2023/01/30 14:30:44;;;;;;;65.50;28.58;;;;;;;;;;6256415;28;20054;-60
2023/01/30 14:33:49;;;;;;;33.22;13.15;;;;;;;;;;6249842;28;20055;-60
2023/01/30 14:36:51;;;;;;;42.35;19.13;;;;;;;;;;6250852;28;20127;-62
2023/01/30 14:39:54;;;;;;;39.70;15.23;;;;;;;;;;6253069;28;20483;-62
2023/01/30 14:43:18;;;;;;;37.25;14.52;;;;;;;;;;6250610;28;20144;-61
2023/01/30 14:46:18;;;;;;;34.78;12.90;;;;;;;;;;6247062;28;20045;-62
2023/01/30 14:49:27;;;;;;;34.50;13.50;;;;;;;;;;6246776;28;20407;-62
2023/01/30 14:52:53;;;;;;;30.52;12.32;;;;;;;;;;6249911;28;20041;-62
2023/01/30 14:56:00;;;;;;;33.88;12.30;;;;;;;;;;6248983;28;20040;-61
2023/01/30 14:59:06;;;;;;;29.70;11.10;;;;;;;;;;6255393;28;20049;-61
2023/01/30 15:02:13;;;;;;;33.70;12.32;;;;;;;;;;6252971;28;20056;-61
2023/01/30 15:05:18;;;;;;;28.92;11.32;;;;;;;;;;6259866;28;20737;-61
2023/01/30 15:08:25;;;;;;;31.65;12.23;;;;;;;;;;6256751;28;20042;-61
2023/01/30 15:11:30;;;;;;;27.40;11.32;;;;;;;;;;6253493;28;20507;-61
2023/01/30 15:15:12;;;;;;;31.05;12.93;;;;;;;;;;6258067;28;20049;-60
2023/01/30 15:18:42;;;;;;;30.85;12.38;;;;;;;;;;6253655;28;20045;-61
2023/01/30 15:22:05;;;;;;;35.83;13.27;;;;;;;;;;6257718;28;20071;-65
2023/01/30 15:25:23;;;;;;;32.08;11.15;;;;;;;;;;6254954;28;20244;-61
2023/01/30 15:28:32;;;;;;;35.15;13.27;;;;;;;;;;6256939;28;20045;-61
2023/01/30 15:31:32;;;;;;;33.45;12.95;;;;;;;;;;6241230;28;20056;-62
2023/01/30 15:34:33;;;;;;;32.67;11.93;;;;;;;;;;6249989;28;20067;-62
2023/01/30 15:37:39;;;;;;;31.67;12.40;;;;;;;;;;6247320;28;20127;-62
2023/01/30 15:40:40;;;;;;;34.15;12.98;;;;;;;;;;6243107;28;20055;-63
2023/01/30 15:43:57;;;;;;;31.05;11.32;;;;;;;;;;6252432;28;20052;-61
2023/01/30 15:47:17;;;;;;;32.20;12.38;;;;;;;;;;6251204;28;20523;-61
2023/01/30 15:50:17;;;;;;;32.72;12.30;;;;;;;;;;6249347;28;20099;-65
2023/01/30 15:53:27;;;;;;;34.70;12.73;;;;;;;;;;6247738;28;20053;-64
2023/01/30 15:56:30;;;;;;;35.53;13.52;;;;;;;;;;6250866;28;20044;-62
2023/01/30 15:59:38;;;;;;;34.63;13.10;;;;;;;;;;6245660;28;20049;-61
2023/01/30 16:02:41;;;;;;;36.00;13.45;;;;;;;;;;6245629;28;20091;-61
2023/01/30 16:05:56;;;;;;;36.17;14.15;;;;;;;;;;6246057;28;20055;-61
2023/01/30 16:09:18;;;;;;;45.88;16.90;;;;;;;;;;6242172;28;20057;-62
2023/01/30 16:12:26;;;;;;;48.88;20.92;;;;;;;;;;6246581;28;20051;-61
2023/01/30 16:15:37;;;;;;;34.80;14.63;;;;;;;;;;6246925;28;20053;-61
2023/01/30 16:18:45;;;;;;;42.03;14.30;;;;;;;;;;6248695;28;20824;-61
2023/01/30 16:21:46;;;;;;;37.40;16.17;;;;;;;;;;6261556;28;20056;-61
2023/01/30 16:24:52;;;;;;;;;;;;;;;;;;6260837;28;20065;-61
2023/01/30 16:27:53;;;;;;;38.45;14.55;;;;;;;;;;6264753;28;19928;-62
2023/01/30 16:31:03;;;;;;;35.90;13.63;;;;;;;;;;6262520;28;20053;-61
2023/01/30 16:34:04;;;;;;;35.95;14.35;;;;;;;;;;6261788;28;20060;-62
2023/01/30 16:37:23;;;;;;;42.10;15.45;;;;;;;;;;6261043;28;20055;-62
2023/01/30 16:40:45;;;;;;;41.22;14.57;;;;;;;;;;6258751;28;20056;-61
2023/01/30 16:43:45;;;;;;;39.40;15.10;;;;;;;;;;6256229;28;20059;-61
2023/01/30 16:46:47;;;;;;;43.05;14.85;;;;;;;;;;6260656;28;20040;-61
2023/01/30 16:49:49;;;;;;;43.63;15.52;;;;;;;;;;6260901;28;20049;-61
2023/01/30 16:52:51;;;;;;;42.03;15.63;;;;;;;;;;6262953;28;20083;-61
2023/01/30 16:55:57;;;;;;;39.58;15.30;;;;;;;;;;6262355;28;20049;-61
2023/01/30 16:58:59;;;;;;;34.75;13.77;;;;;;;;;;6258320;28;20057;-59
2023/01/30 17:02:03;;;;;;;39.83;15.07;;;;;;;;;;6259633;28;20049;-60
2023/01/30 17:05:22;;;;;;;36.63;14.27;;;;;;;;;;6258824;28;20607;-61
2023/01/30 17:08:44;;;;;;;37.72;14.68;;;;;;;;;;6256151;28;20048;-61
2023/01/30 17:11:45;;;;;;;37.40;13.85;;;;;;;;;;6260619;28;20061;-61
2023/01/30 17:14:45;;;;;;;33.63;13.10;;;;;;;;;;6260931;28;20063;-61
2023/01/30 17:17:46;;;;;;;42.10;15.55;;;;;;;;;;6262518;28;21532;-61
2023/01/30 17:20:50;;;;;;;37.20;15.00;;;;;;;;;;6259192;28;20049;-63
2023/01/30 17:24:02;;;;;;;43.63;17.73;;;;;;;;;;6261146;28;20053;-61
2023/01/30 17:27:03;;;;;;;47.10;20.15;;;;;;;;;;6260033;28;20063;-59
2023/01/30 17:30:13;;;;;;;52.80;21.92;;;;;;;;;;6264447;28;20478;-59
2023/01/30 17:33:13;;;;;;;49.00;22.05;;;;;;;;;;6264416;28;20055;-58
2023/01/30 17:36:22;;;;;;;53.90;23.80;;;;;;;;;;6268503;28;20052;-59
2023/01/30 17:39:25;;;;;;;35.95;15.75;;;;;;;;;;6261680;28;20054;-59
2023/01/30 17:42:25;;;;;;;41.10;17.08;;;;;;;;;;6260105;28;20989;-59
2023/01/30 17:45:27;;;;;;;37.00;15.80;;;;;;;;;;6259912;28;20036;-59
2023/01/30 17:48:27;;;;;;;33.88;15.35;;;;;;;;;;6260234;28;20569;-61
2023/01/30 17:51:28;;;;;;;36.42;13.55;;;;;;;;;;6258286;28;20872;-61
2023/01/30 17:54:28;;;;;;;36.78;16.60;;;;;;;;;;6261083;28;20060;-60
2023/01/30 17:57:29;;;;;;;42.58;15.68;;;;;;;;;;6258957;28;20052;-59
2023/01/30 18:00:30;;;;;;;38.72;16.75;;;;;;;;;;6260397;28;20056;-61
2023/01/30 18:03:30;;;;;;;43.17;17.77;;;;;;;;;;6259207;28;20057;-59
2023/01/30 18:06:32;;;;;;;38.47;15.15;;;;;;;;;;6262172;28;20041;-66
2023/01/30 18:09:33;;;;;;;36.53;15.80;;;;;;;;;;6267701;28;20051;-60
2023/01/30 18:12:33;;;;;;;43.15;15.77;;;;;;;;;;6263157;28;20049;-60
2023/01/30 18:15:34;;;;;;;42.67;16.00;;;;;;;;;;6264245;28;20049;-61
2023/01/30 18:18:34;;;;;;;99.38;28.00;;;;;;;;;;6263601;28;20473;-61
2023/01/30 18:21:38;;;;;;;45.88;16.73;;;;;;;;;;6264313;28;20616;-61